Time;durP1;ratioP1;P1;durP2;ratioP2;P2;SDS_P1;SDS_P2;PMS_P1;PMS_P2;Temp;Humidity;BMP_temperature;BMP_pressure;BME280_temperature;BME280_humidity;BME280_pressure;Samples;Min_cycle;Max_cycle;Signal;HPM_P1;HPM_P2
2022/09/06 00:00:16;;;;;;;1.30;0.98;;;26.30;49.40;;;;;;5051325;28;20033;-68
2022/09/06 00:02:43;;;;;;;1.23;1.00;;;26.30;49.50;;;;;;5051506;28;20021;-66
2022/09/06 00:05:10;;;;;;;0.88;0.77;;;26.30;49.50;;;;;;5050115;28;20495;-65
2022/09/06 00:07:36;;;;;;;1.00;0.90;;;26.30;49.50;;;;;;5052006;28;20070;-65
2022/09/06 00:10:03;;;;;;;1.35;0.80;;;26.30;49.50;;;;;;5051594;28;20178;-64
2022/09/06 00:12:29;;;;;;;1.60;0.90;;;26.20;49.50;;;;;;5051175;28;20032;-66
2022/09/06 00:14:55;;;;;;;1.30;0.85;;;26.20;49.50;;;;;;5051418;28;20037;-66
2022/09/06 00:17:20;;;;;;;1.23;0.90;;;26.20;49.50;;;;;;5051472;28;20040;-67
2022/09/06 00:19:46;;;;;;;0.93;0.80;;;26.20;49.60;;;;;;5051399;28;20120;-67
2022/09/06 00:22:12;;;;;;;2.15;1.33;;;26.20;49.60;;;;;;5051368;28;20079;-65
2022/09/06 00:24:37;;;;;;;1.15;0.90;;;26.20;49.60;;;;;;5051298;28;20029;-66
2022/09/06 00:27:04;;;;;;;0.95;0.88;;;26.20;49.70;;;;;;5051301;28;20025;-67
2022/09/06 00:29:30;;;;;;;1.30;0.88;;;26.20;49.70;;;;;;5051146;28;20493;-66
2022/09/06 00:31:56;;;;;;;1.10;0.90;;;26.20;49.70;;;;;;5050701;28;20109;-64
2022/09/06 00:34:22;;;;;;;1.00;0.88;;;26.20;49.70;;;;;;5051557;28;20029;-68
2022/09/06 00:36:48;;;;;;;1.05;0.90;;;26.20;49.70;;;;;;5051006;28;20033;-66
2022/09/06 00:39:14;;;;;;;1.52;0.82;;;26.20;49.80;;;;;;5050757;28;20511;-66
2022/09/06 00:41:39;;;;;;;1.45;1.10;;;26.20;49.80;;;;;;5051123;28;20100;-66
2022/09/06 00:44:05;;;;;;;1.20;1.00;;;26.10;49.70;;;;;;5050972;28;20140;-67
2022/09/06 00:46:31;;;;;;;0.90;0.80;;;26.10;49.70;;;;;;5051044;28;20456;-67
2022/09/06 00:49:14;;;;;;;1.30;1.00;;;26.20;49.80;;;;;;5050814;28;20036;-65
2022/09/06 00:51:40;;;;;;;1.10;0.90;;;26.10;49.80;;;;;;5050817;28;20036;-65
2022/09/06 00:54:07;;;;;;;0.80;0.80;;;26.10;49.80;;;;;;5050926;28;20025;-67
2022/09/06 00:56:40;;;;;;;1.20;0.95;;;26.10;49.80;;;;;;5050955;28;20048;-66
2022/09/06 00:59:06;;;;;;;0.80;0.80;;;26.10;49.90;;;;;;5049863;28;20409;-67
2022/09/06 01:01:32;;;;;;;1.30;0.90;;;26.10;49.90;;;;;;5050227;28;20056;-67
2022/09/06 01:03:58;;;;;;;0.95;0.85;;;26.10;49.90;;;;;;5050768;28;20106;-65
2022/09/06 01:06:56;;;;;;;1.00;0.90;;;26.10;49.90;;;;;;5050779;28;20500;-67
2022/09/06 01:09:36;;;;;;;0.85;0.80;;;26.00;49.90;;;;;;5049918;28;20036;-67
2022/09/06 01:12:02;;;;;;;1.00;0.90;;;26.10;50.00;;;;;;5032718;28;20044;-68
2022/09/06 01:14:46;;;;;;;1.30;0.85;;;26.00;49.90;;;;;;5050559;28;20053;-66
2022/09/06 01:17:20;;;;;;;1.13;0.80;;;26.00;49.90;;;;;;5049100;28;20380;-65
2022/09/06 01:20:02;;;;;;;1.20;1.00;;;26.00;49.90;;;;;;5049932;28;20029;-66
2022/09/06 01:23:18;;;;;;;1.13;0.82;;;26.00;49.90;;;;;;5050078;28;20432;-68
2022/09/06 01:26:02;;;;;;;1.38;0.82;;;26.10;50.00;;;;;;4950312;29;20491;-66
2022/09/06 01:28:38;;;;;;;1.45;0.82;;;26.00;49.90;;;;;;5041830;28;20403;-65
2022/09/06 01:31:20;;;;;;;1.33;0.88;;;26.00;49.90;;;;;;5049948;28;20130;-65
2022/09/06 01:34:04;;;;;;;0.93;0.90;;;26.00;50.00;;;;;;5049844;28;20024;-67
2022/09/06 01:37:01;;;;;;;0.98;0.80;;;26.00;50.00;;;;;;5050562;28;20025;-66
2022/09/06 01:39:29;;;;;;;0.80;0.80;;;26.00;50.00;;;;;;5050621;28;20025;-66
2022/09/06 01:41:58;;;;;;;1.13;0.88;;;26.00;50.00;;;;;;5050614;28;20022;-67
2022/09/06 01:44:27;;;;;;;1.40;0.90;;;26.00;50.00;;;;;;5050526;28;20082;-67
2022/09/06 01:46:53;;;;;;;;;;;26.00;50.00;;;;;;5050866;28;20507;-66
2022/09/06 01:49:32;;;;;;;1.25;0.80;;;26.00;50.00;;;;;;5048371;28;20015;-66
2022/09/06 01:52:17;;;;;;;;;;;25.90;50.00;;;;;;5052124;28;20037;-65
2022/09/06 01:54:42;;;;;;;1.00;0.90;;;25.90;50.00;;;;;;5053452;28;19904;-65
2022/09/06 01:57:25;;;;;;;1.00;0.80;;;25.90;50.00;;;;;;5054286;28;20086;-66
2022/09/06 02:00:08;;;;;;;0.90;0.80;;;26.00;50.10;;;;;;5053426;28;20024;-66
2022/09/06 02:02:58;;;;;;;1.10;0.85;;;25.90;50.00;;;;;;5053206;28;20025;-66
2022/09/06 02:05:33;;;;;;;1.13;0.80;;;25.90;50.10;;;;;;5054065;28;20071;-67
2022/09/06 02:08:04;;;;;;;1.10;0.82;;;25.90;50.10;;;;;;5053931;28;20032;-66
2022/09/06 02:10:48;;;;;;;1.38;0.90;;;25.90;50.10;;;;;;5053454;28;20033;-67
2022/09/06 02:13:16;;;;;;;1.27;0.90;;;25.90;50.10;;;;;;5052827;28;20488;-66
2022/09/06 02:15:51;;;;;;;1.00;0.80;;;25.90;50.10;;;;;;5035497;28;20476;-66
2022/09/06 02:18:50;;;;;;;0.90;0.73;;;25.90;50.10;;;;;;5052205;28;20492;-67
2022/09/06 02:21:20;;;;;;;0.80;0.70;;;25.90;50.10;;;;;;5053642;28;20130;-68
2022/09/06 02:23:47;;;;;;;1.48;0.90;;;25.90;50.10;;;;;;5053577;28;20056;-65
2022/09/06 02:26:15;;;;;;;0.88;0.70;;;25.90;50.10;;;;;;5053599;28;20023;-65
2022/09/06 02:28:41;;;;;;;0.90;0.80;;;25.90;50.20;;;;;;5053476;28;20032;-65
2022/09/06 02:31:23;;;;;;;0.80;0.70;;;25.90;50.20;;;;;;5053126;28;20415;-67
2022/09/06 02:33:50;;;;;;;0.82;0.80;;;25.90;50.20;;;;;;5053098;28;20021;-66
2022/09/06 02:36:17;;;;;;;1.27;0.90;;;25.90;50.20;;;;;;5053427;28;20032;-66
2022/09/06 02:38:44;;;;;;;0.70;0.70;;;25.90;50.20;;;;;;5053414;28;20376;-67
2022/09/06 02:41:12;;;;;;;1.65;0.80;;;25.90;50.20;;;;;;5053313;28;20060;-66
2022/09/06 02:43:38;;;;;;;1.00;0.85;;;25.90;50.20;;;;;;5053307;28;20480;-67
2022/09/06 02:46:04;;;;;;;1.08;0.80;;;25.90;50.20;;;;;;5053435;28;20404;-65
2022/09/06 02:48:30;;;;;;;0.77;0.70;;;25.80;50.10;;;;;;5053165;28;20108;-66
2022/09/06 02:50:56;;;;;;;1.10;0.80;;;25.80;50.10;;;;;;5051891;28;20017;-67
2022/09/06 02:53:21;;;;;;;1.05;0.80;;;25.80;50.10;;;;;;5053038;28;20024;-66
2022/09/06 02:55:47;;;;;;;0.90;0.80;;;25.80;50.10;;;;;;5053071;28;20040;-66
2022/09/06 02:58:14;;;;;;;1.02;0.90;;;25.80;50.10;;;;;;5053054;28;20028;-66
2022/09/06 03:00:40;;;;;;;1.05;0.80;;;25.80;50.20;;;;;;5047482;28;20042;-66
2022/09/06 03:03:06;;;;;;;1.17;0.80;;;25.80;50.20;;;;;;5031987;28;20026;-66
2022/09/06 03:05:32;;;;;;;1.00;0.70;;;25.80;50.20;;;;;;5032764;28;20461;-65
2022/09/06 03:07:58;;;;;;;0.80;0.80;;;25.80;50.20;;;;;;5033040;28;20041;-66
2022/09/06 03:10:25;;;;;;;0.90;0.90;;;25.80;50.20;;;;;;5033145;28;20021;-66
2022/09/06 03:12:51;;;;;;;0.82;0.73;;;25.80;50.20;;;;;;5032774;28;20022;-67
2022/09/06 03:15:17;;;;;;;0.93;0.80;;;25.80;50.20;;;;;;5032761;28;20033;-66
2022/09/06 03:17:43;;;;;;;1.10;0.80;;;25.80;50.20;;;;;;5032954;28;20436;-65
2022/09/06 03:20:10;;;;;;;1.00;0.90;;;25.80;50.20;;;;;;5032834;28;20041;-68
2022/09/06 03:22:40;;;;;;;0.90;0.80;;;25.80;50.20;;;;;;5032559;28;20513;-66
2022/09/06 03:25:06;;;;;;;;;;;25.80;50.20;;;;;;5033102;28;20496;-66
2022/09/06 03:27:32;;;;;;;1.00;0.80;;;25.80;50.30;;;;;;5032669;28;19905;-65
2022/09/06 03:29:57;;;;;;;0.90;0.80;;;25.80;50.20;;;;;;5032603;28;20540;-66
2022/09/06 03:32:23;;;;;;;1.42;0.90;;;25.70;50.20;;;;;;5032052;28;20095;-66
2022/09/06 03:34:48;;;;;;;1.00;0.80;;;25.70;50.20;;;;;;5032468;28;20435;-67
2022/09/06 03:37:14;;;;;;;0.98;0.80;;;25.70;50.20;;;;;;5032451;28;20021;-66
2022/09/06 03:39:40;;;;;;;0.80;0.70;;;25.70;50.20;;;;;;5032448;28;20037;-67
2022/09/06 03:42:06;;;;;;;0.82;0.80;;;25.70;50.20;;;;;;5032402;28;20053;-67
2022/09/06 03:44:31;;;;;;;1.17;0.80;;;25.70;50.30;;;;;;5032365;28;20025;-66
2022/09/06 03:46:57;;;;;;;1.00;0.70;;;25.70;50.30;;;;;;5032681;28;20060;-65
2022/09/06 03:49:23;;;;;;;1.60;0.80;;;25.70;50.30;;;;;;5013738;28;20029;-67
2022/09/06 03:51:48;;;;;;;1.75;0.80;;;25.70;50.30;;;;;;5032106;28;20057;-67
2022/09/06 03:54:14;;;;;;;0.95;0.85;;;25.70;50.30;;;;;;5032170;28;20025;-64
2022/09/06 03:56:40;;;;;;;0.90;0.80;;;25.70;50.40;;;;;;5032189;28;20029;-67
2022/09/06 03:59:05;;;;;;;0.70;0.70;;;25.70;50.40;;;;;;5031974;28;20025;-66
2022/09/06 04:01:31;;;;;;;0.93;0.80;;;25.70;50.40;;;;;;5042855;28;20545;-67
2022/09/06 04:03:56;;;;;;;0.80;0.80;;;25.70;50.40;;;;;;5051831;28;20021;-65
2022/09/06 04:06:22;;;;;;;0.70;0.70;;;25.70;50.40;;;;;;5052088;28;20070;-65
2022/09/06 04:08:48;;;;;;;0.80;0.80;;;25.70;50.90;;;;;;5051747;28;20033;-66
2022/09/06 04:11:13;;;;;;;0.98;0.80;;;25.70;50.40;;;;;;5051728;28;20427;-65
2022/09/06 04:13:40;;;;;;;0.80;0.80;;;25.70;50.40;;;;;;5051426;28;20079;-67
2022/09/06 04:16:06;;;;;;;0.80;0.80;;;25.60;50.30;;;;;;5051277;28;20021;-67
2022/09/06 04:18:32;;;;;;;0.80;0.80;;;25.70;50.40;;;;;;5051557;28;20362;-66
2022/09/06 04:20:57;;;;;;;1.10;0.80;;;25.70;50.40;;;;;;5051529;28;20032;-66
2022/09/06 04:23:26;;;;;;;1.00;0.90;;;25.60;50.40;;;;;;5051402;28;20025;-67
2022/09/06 04:25:53;;;;;;;1.02;0.80;;;25.60;50.40;;;;;;5051348;28;20083;-67
2022/09/06 04:28:20;;;;;;;0.90;0.80;;;25.60;50.40;;;;;;5051446;28;20047;-68
2022/09/06 04:30:52;;;;;;;1.00;0.90;;;25.60;50.90;;;;;;5045207;28;20029;-66
2022/09/06 04:33:19;;;;;;;0.90;0.80;;;25.60;50.40;;;;;;5030196;28;20120;-67
2022/09/06 04:36:07;;;;;;;0.90;0.80;;;25.60;50.40;;;;;;5031255;28;20018;-65
2022/09/06 04:38:37;;;;;;;1.20;0.85;;;25.60;50.40;;;;;;5029494;28;20361;-67
2022/09/06 04:41:04;;;;;;;1.98;0.80;;;25.60;50.40;;;;;;5031341;28;20037;-67
2022/09/06 04:43:30;;;;;;;0.75;0.75;;;25.60;50.40;;;;;;5031501;28;20030;-65
2022/09/06 04:46:04;;;;;;;1.33;0.90;;;25.60;50.50;;;;;;5031214;28;20449;-65
2022/09/06 04:48:29;;;;;;;0.70;0.70;;;25.60;51.00;;;;;;5031199;28;20030;-64
2022/09/06 04:50:55;;;;;;;0.80;0.70;;;25.60;50.50;;;;;;5031119;28;20447;-67
2022/09/06 04:53:20;;;;;;;1.05;0.90;;;25.60;50.50;;;;;;5030240;28;20025;-65
2022/09/06 04:55:46;;;;;;;0.70;0.70;;;25.60;50.50;;;;;;5029649;28;20492;-65
2022/09/06 04:58:12;;;;;;;0.80;0.70;;;25.60;50.40;;;;;;5031000;28;20040;-66
2022/09/06 05:00:38;;;;;;;0.77;0.77;;;25.60;50.50;;;;;;5030423;28;20033;-65
2022/09/06 05:03:04;;;;;;;1.17;0.80;;;25.60;50.50;;;;;;5030259;28;20032;-66
2022/09/06 05:05:29;;;;;;;0.75;0.70;;;25.50;50.40;;;;;;5030433;28;20108;-64
2022/09/06 05:07:55;;;;;;;0.98;0.80;;;25.50;50.40;;;;;;5030914;28;20030;-65
2022/09/06 05:10:22;;;;;;;0.73;0.70;;;25.50;50.40;;;;;;5030856;28;20030;-65
2022/09/06 05:12:49;;;;;;;0.70;0.70;;;25.50;51.00;;;;;;5030562;28;20060;-65
2022/09/06 05:15:16;;;;;;;0.70;0.70;;;25.50;50.40;;;;;;5030903;28;20037;-63
2022/09/06 05:17:42;;;;;;;0.85;0.82;;;25.50;50.40;;;;;;5030919;28;20018;-65
2022/09/06 05:20:09;;;;;;;1.00;0.88;;;25.50;50.50;;;;;;5030746;28;20103;-65
2022/09/06 05:22:34;;;;;;;0.73;0.70;;;25.50;50.50;;;;;;5030294;28;20504;-65
2022/09/06 05:25:00;;;;;;;0.80;0.80;;;25.50;50.50;;;;;;5030741;28;20029;-64
2022/09/06 05:27:25;;;;;;;0.70;0.70;;;25.50;50.50;;;;;;5033267;28;20453;-65
2022/09/06 05:29:51;;;;;;;0.80;0.80;;;25.50;50.50;;;;;;5034922;28;20116;-65
2022/09/06 05:32:20;;;;;;;0.90;0.82;;;25.50;50.50;;;;;;5034379;28;20109;-65
2022/09/06 05:34:45;;;;;;;0.77;0.77;;;25.50;50.50;;;;;;5034262;28;20032;-64
2022/09/06 05:37:11;;;;;;;0.68;0.68;;;25.50;50.40;;;;;;5034720;28;20492;-65
2022/09/06 05:39:37;;;;;;;0.80;0.80;;;25.50;50.50;;;;;;5034491;28;20033;-64
2022/09/06 05:42:05;;;;;;;1.05;0.80;;;25.50;50.60;;;;;;5034668;28;20078;-65
2022/09/06 05:44:35;;;;;;;1.50;0.80;;;25.50;50.60;;;;;;5034588;28;20540;-64
2022/09/06 05:47:01;;;;;;;0.70;0.70;;;25.60;51.20;;;;;;5034535;28;20416;-64
2022/09/06 05:49:29;;;;;;;0.90;0.80;;;25.60;50.50;;;;;;5034550;28;20032;-64
2022/09/06 05:51:54;;;;;;;0.80;0.80;;;25.60;50.50;;;;;;5034500;28;20499;-65
2022/09/06 05:54:20;;;;;;;1.02;0.90;;;25.60;50.40;;;;;;5033949;28;20037;-64
2022/09/06 05:56:46;;;;;;;1.10;1.00;;;25.70;50.40;;;;;;5034360;28;20115;-63
2022/09/06 05:59:11;;;;;;;0.90;0.90;;;25.70;50.30;;;;;;5008277;28;20029;-64
2022/09/06 06:01:46;;;;;;;1.00;0.90;;;25.70;50.20;;;;;;5033594;28;20034;-64
2022/09/06 06:04:12;;;;;;;1.10;1.00;;;25.80;50.20;;;;;;5032962;28;20033;-64
2022/09/06 06:06:38;;;;;;;0.95;0.85;;;25.80;50.10;;;;;;5034076;28;20021;-64
2022/09/06 06:09:04;;;;;;;0.85;0.80;;;25.80;50.00;;;;;;5034079;28;20123;-64
2022/09/06 06:11:30;;;;;;;1.48;1.00;;;25.80;50.00;;;;;;5016292;28;20542;-63
2022/09/06 06:13:57;;;;;;;1.23;1.10;;;25.80;49.90;;;;;;5033923;28;20069;-64
2022/09/06 06:16:24;;;;;;;0.80;0.80;;;25.90;49.90;;;;;;5033986;28;20036;-64
2022/09/06 06:18:50;;;;;;;1.00;0.90;;;25.90;49.80;;;;;;5033806;28;20120;-64
2022/09/06 06:21:17;;;;;;;1.00;0.90;;;25.90;49.80;;;;;;5033886;28;20044;-63
2022/09/06 06:23:44;;;;;;;1.30;0.95;;;26.00;49.80;;;;;;5033882;28;20068;-64
2022/09/06 06:26:11;;;;;;;1.13;1.00;;;26.00;49.70;;;;;;5033841;28;20045;-64
2022/09/06 06:28:38;;;;;;;1.25;1.00;;;26.00;49.70;;;;;;5033660;28;20432;-64
2022/09/06 06:31:05;;;;;;;1.45;1.17;;;26.00;49.70;;;;;;5033223;28;20064;-64
2022/09/06 06:33:32;;;;;;;1.38;1.00;;;26.10;50.20;;;;;;5031892;28;20112;-64
2022/09/06 06:36:12;;;;;;;1.10;1.00;;;26.10;49.60;;;;;;5033714;28;20469;-64
2022/09/06 06:38:40;;;;;;;1.45;1.00;;;26.10;49.60;;;;;;5033032;28;20033;-64
2022/09/06 06:41:07;;;;;;;1.35;1.05;;;26.10;49.50;;;;;;5033557;28;20148;-65
2022/09/06 06:43:37;;;;;;;1.38;1.05;;;26.20;49.60;;;;;;5033035;28;20082;-64
2022/09/06 06:46:07;;;;;;;1.23;1.02;;;26.20;49.50;;;;;;5033514;28;20022;-64
2022/09/06 06:48:34;;;;;;;1.70;1.17;;;26.20;49.50;;;;;;5033326;28;20028;-65
2022/09/06 06:51:00;;;;;;;1.15;1.02;;;26.20;49.50;;;;;;5033396;28;20029;-65
2022/09/06 06:53:25;;;;;;;1.00;0.90;;;26.20;49.40;;;;;;5033286;28;20389;-65
2022/09/06 06:55:51;;;;;;;1.13;1.00;;;26.20;49.40;;;;;;5033198;28;20450;-66
2022/09/06 06:58:17;;;;;;;1.00;0.90;;;26.20;49.40;;;;;;5033318;28;20022;-65
2022/09/06 07:00:44;;;;;;;1.70;1.30;;;26.30;49.40;;;;;;5032928;28;20520;-65
2022/09/06 07:03:11;;;;;;;1.33;1.10;;;26.30;50.00;;;;;;5032986;28;20477;-64
2022/09/06 07:05:37;;;;;;;1.77;1.10;;;26.30;49.40;;;;;;5033078;28;20132;-65
2022/09/06 07:08:06;;;;;;;1.33;1.00;;;26.30;49.40;;;;;;5033082;28;20022;-65
2022/09/06 07:10:32;;;;;;;1.10;1.00;;;26.30;49.40;;;;;;5033041;28;20021;-64
2022/09/06 07:12:58;;;;;;;1.17;0.95;;;26.30;49.40;;;;;;5032582;28;20566;-65
2022/09/06 07:15:24;;;;;;;1.17;1.00;;;26.30;49.40;;;;;;5032353;28;20097;-65
2022/09/06 07:17:51;;;;;;;1.13;1.02;;;26.30;49.40;;;;;;5032862;28;20130;-65
2022/09/06 07:20:19;;;;;;;1.10;0.90;;;26.40;49.40;;;;;;5032848;28;20026;-65
2022/09/06 07:22:44;;;;;;;1.58;1.10;;;26.40;49.40;;;;;;5032692;28;20022;-65
2022/09/06 07:25:12;;;;;;;1.27;0.98;;;26.40;49.40;;;;;;5032701;28;20030;-65
2022/09/06 07:27:38;;;;;;;1.00;0.90;;;26.40;49.40;;;;;;5031724;28;20029;-64
2022/09/06 07:30:04;;;;;;;1.00;0.90;;;26.40;49.40;;;;;;5032284;28;20029;-64
2022/09/06 07:32:33;;;;;;;1.83;1.15;;;26.40;49.40;;;;;;5032533;28;20061;-64
2022/09/06 07:34:58;;;;;;;1.40;1.00;;;26.40;49.40;;;;;;5032549;28;20432;-65
2022/09/06 07:37:24;;;;;;;1.50;1.13;;;26.50;49.40;;;;;;5032326;28;20256;-65
2022/09/06 07:39:49;;;;;;;1.00;0.90;;;26.40;49.30;;;;;;5032351;28;20485;-65
2022/09/06 07:42:15;;;;;;;1.80;1.10;;;26.50;49.40;;;;;;5032445;28;20132;-66
2022/09/06 07:44:41;;;;;;;2.13;1.00;;;26.50;50.00;;;;;;5032337;28;20096;-66
2022/09/06 07:47:07;;;;;;;1.30;1.10;;;26.50;49.40;;;;;;5032273;28;20025;-67
2022/09/06 07:49:33;;;;;;;1.52;1.00;;;26.50;49.40;;;;;;5031357;28;20037;-67
2022/09/06 07:51:58;;;;;;;1.23;1.10;;;26.50;49.30;;;;;;5032286;28;20115;-66
2022/09/06 07:54:24;;;;;;;1.35;1.00;;;26.60;49.40;;;;;;5032138;28;20049;-65
2022/09/06 07:56:49;;;;;;;1.60;1.02;;;26.60;49.30;;;;;;5032050;28;20025;-66
2022/09/06 07:59:15;;;;;;;1.15;1.02;;;26.60;49.40;;;;;;5031722;28;20429;-66
2022/09/06 08:01:41;;;;;;;1.20;1.00;;;26.60;49.30;;;;;;5031473;28;20029;-66
2022/09/06 08:04:12;;;;;;;1.20;0.93;;;26.60;49.40;;;;;;5031873;28;20096;-66
2022/09/06 08:06:43;;;;;;;1.67;1.15;;;26.60;49.30;;;;;;5030976;28;20077;-65
2022/09/06 08:09:09;;;;;;;1.60;1.08;;;26.60;49.30;;;;;;5031651;28;20080;-65
2022/09/06 08:11:36;;;;;;;1.60;1.10;;;26.60;49.30;;;;;;5031767;28;20037;-66
2022/09/06 08:14:05;;;;;;;1.38;1.00;;;26.70;49.30;;;;;;5031531;28;20512;-64
2022/09/06 08:16:32;;;;;;;1.93;1.10;;;26.70;49.30;;;;;;5031771;28;20029;-65
2022/09/06 08:19:00;;;;;;;1.52;1.00;;;26.60;49.20;;;;;;5030802;28;20252;-65
2022/09/06 08:21:31;;;;;;;1.45;1.00;;;26.70;49.20;;;;;;5031333;28;20097;-65
2022/09/06 08:24:04;;;;;;;1.33;0.98;;;26.70;49.20;;;;;;5013819;28;20017;-66
2022/09/06 08:26:32;;;;;;;1.45;0.90;;;26.70;49.40;;;;;;5031203;28;20465;-65
2022/09/06 08:29:00;;;;;;;1.05;0.90;;;26.70;49.80;;;;;;5031546;28;20051;-65
2022/09/06 08:31:27;;;;;;;0.93;0.82;;;26.60;50.00;;;;;;5030654;28;20493;-65
2022/09/06 08:33:54;;;;;;;0.88;0.80;;;26.70;50.00;;;;;;5030793;28;20030;-65
2022/09/06 08:36:20;;;;;;;1.23;1.00;;;26.70;50.00;;;;;;5031362;28;20021;-65
2022/09/06 08:38:46;;;;;;;0.80;0.80;;;26.70;50.20;;;;;;5031284;28;20449;-65
2022/09/06 08:41:26;;;;;;;1.17;0.80;;;26.70;50.10;;;;;;5031280;28;20032;-65
2022/09/06 08:44:01;;;;;;;1.05;0.80;;;26.70;50.10;;;;;;5029873;28;20060;-65
2022/09/06 08:46:43;;;;;;;1.15;0.88;;;26.80;50.00;;;;;;5030936;28;20026;-65
2022/09/06 08:49:09;;;;;;;1.10;0.80;;;26.80;50.50;;;;;;5030902;28;20128;-65
2022/09/06 08:51:52;;;;;;;1.05;0.80;;;26.80;49.90;;;;;;5039005;28;20052;-64
2022/09/06 08:54:31;;;;;;;0.88;0.80;;;26.80;49.80;;;;;;5029107;28;20025;-65
2022/09/06 08:57:08;;;;;;;2.55;0.70;;;26.80;49.70;;;;;;5028486;28;20123;-65
2022/09/06 08:59:39;;;;;;;0.80;0.80;;;26.90;49.70;;;;;;5013108;28;20127;-64
2022/09/06 09:02:19;;;;;;;1.08;0.85;;;26.90;49.70;;;;;;5030263;28;20472;-65
2022/09/06 09:04:53;;;;;;;0.80;0.80;;;26.90;49.70;;;;;;5011953;28;20053;-65
2022/09/06 09:07:42;;;;;;;0.73;0.70;;;26.90;49.60;;;;;;5030658;28;20124;-65
2022/09/06 09:10:20;;;;;;;1.02;0.90;;;26.90;49.70;;;;;;5030787;28;20034;-64
2022/09/06 09:12:47;;;;;;;1.05;0.82;;;26.90;49.60;;;;;;5029207;28;20097;-65
2022/09/06 09:15:16;;;;;;;0.70;0.70;;;27.00;49.70;;;;;;5030899;28;20025;-64
2022/09/06 09:17:43;;;;;;;1.00;0.80;;;27.00;49.60;;;;;;5030885;28;20104;-65
2022/09/06 09:20:09;;;;;;;1.65;0.90;;;27.00;49.60;;;;;;5028021;28;20652;-66
2022/09/06 09:22:36;;;;;;;0.90;0.80;;;27.00;49.70;;;;;;5030818;28;20021;-64
2022/09/06 09:25:03;;;;;;;1.33;0.90;;;27.00;49.80;;;;;;5030741;28;20025;-65
2022/09/06 09:27:31;;;;;;;0.90;0.80;;;27.00;49.80;;;;;;5030867;28;20110;-65
2022/09/06 09:30:00;;;;;;;1.08;0.90;;;27.10;50.40;;;;;;5030682;28;20465;-65
2022/09/06 09:32:40;;;;;;;1.20;1.00;;;27.10;49.80;;;;;;5030134;28;20496;-65
2022/09/06 09:35:31;;;;;;;1.48;0.90;;;27.10;49.80;;;;;;5030804;28;20498;-65
2022/09/06 09:38:11;;;;;;;1.13;0.95;;;27.10;49.80;;;;;;5030441;28;20534;-65
2022/09/06 09:40:48;;;;;;;1.25;0.98;;;27.10;49.70;;;;;;5029854;28;20506;-64
2022/09/06 09:43:18;;;;;;;1.00;0.90;;;27.20;49.80;;;;;;5030484;28;20389;-65
2022/09/06 09:45:45;;;;;;;1.00;0.90;;;27.20;49.80;;;;;;5030635;28;20536;-65
2022/09/06 09:48:27;;;;;;;0.80;0.80;;;27.20;49.80;;;;;;5004079;28;20032;-65
2022/09/06 09:50:54;;;;;;;0.98;0.88;;;27.20;49.80;;;;;;5029847;28;20424;-65
2022/09/06 09:53:22;;;;;;;0.95;0.88;;;27.20;49.80;;;;;;5029063;28;20028;-65
2022/09/06 09:55:54;;;;;;;1.20;0.80;;;27.20;49.70;;;;;;5029448;28;20101;-65
2022/09/06 09:58:29;;;;;;;0.98;0.88;;;27.20;49.70;;;;;;5030026;28;20034;-65
2022/09/06 10:01:14;;;;;;;1.30;0.80;;;27.30;49.50;;;;;;5029908;28;20057;-65
2022/09/06 10:03:39;;;;;;;0.82;0.77;;;27.30;49.30;;;;;;5030428;28;20493;-65
2022/09/06 10:06:10;;;;;;;0.95;0.88;;;27.30;49.20;;;;;;5030917;28;20032;-65
2022/09/06 10:08:41;;;;;;;0.80;0.80;;;27.30;49.10;;;;;;5029436;28;20108;-66
2022/09/06 10:11:11;;;;;;;1.13;0.73;;;27.30;49.10;;;;;;5029904;28;20393;-65
2022/09/06 10:13:37;;;;;;;0.80;0.80;;;27.30;49.00;;;;;;5030538;28;20120;-66
2022/09/06 10:16:03;;;;;;;1.20;1.10;;;27.30;48.90;;;;;;5033864;28;20096;-65
2022/09/06 10:18:42;;;;;;;1.30;1.00;;;27.30;48.90;;;;;;5033909;28;20061;-65
2022/09/06 10:21:21;;;;;;;0.80;0.80;;;27.30;48.90;;;;;;5033037;28;20037;-65
2022/09/06 10:24:14;;;;;;;1.00;0.90;;;27.30;48.90;;;;;;5033810;28;20029;-65
2022/09/06 10:26:55;;;;;;;0.93;0.80;;;27.30;48.90;;;;;;5031389;28;20026;-65
2022/09/06 10:29:43;;;;;;;0.70;0.70;;;27.30;48.90;;;;;;5033683;28;20057;-66
2022/09/06 10:32:21;;;;;;;0.95;0.80;;;27.30;48.80;;;;;;5033023;28;20626;-65
2022/09/06 10:34:59;;;;;;;0.80;0.80;;;27.30;48.80;;;;;;5033215;28;20029;-65
2022/09/06 10:37:46;;;;;;;1.00;0.80;;;27.30;48.90;;;;;;5033566;28;20030;-66
2022/09/06 10:40:21;;;;;;;0.88;0.73;;;27.30;48.90;;;;;;5031974;28;20029;-65
2022/09/06 10:42:53;;;;;;;0.65;0.65;;;27.30;48.80;;;;;;5033072;28;20021;-66
2022/09/06 10:45:30;;;;;;;0.75;0.70;;;27.30;48.80;;;;;;5031767;28;20132;-65
2022/09/06 10:48:14;;;;;;;0.95;0.90;;;27.30;49.30;;;;;;5033484;28;20051;-64
2022/09/06 10:51:05;;;;;;;0.85;0.80;;;27.30;50.10;;;;;;5033191;28;20091;-65
2022/09/06 10:54:02;;;;;;;1.33;0.90;;;27.30;50.30;;;;;;5032728;28;20037;-65
2022/09/06 10:56:48;;;;;;;0.98;0.80;;;27.30;50.60;;;;;;5031367;28;20021;-65
2022/09/06 10:59:41;;;;;;;0.80;0.80;;;27.30;50.80;;;;;;5033316;28;20033;-65
2022/09/06 11:02:40;;;;;;;1.30;0.90;;;27.30;50.90;;;;;;5030679;28;20025;-65
2022/09/06 11:05:11;;;;;;;0.80;0.77;;;27.30;50.80;;;;;;5032504;28;20906;-67
2022/09/06 11:07:43;;;;;;;1.00;0.80;;;27.30;50.90;;;;;;5032809;28;20040;-66
2022/09/06 11:10:23;;;;;;;0.80;0.80;;;27.30;50.80;;;;;;5031965;28;20101;-65
2022/09/06 11:13:01;;;;;;;0.80;0.80;;;27.40;50.80;;;;;;5032814;28;20030;-66
2022/09/06 11:15:30;;;;;;;1.17;0.90;;;27.40;50.90;;;;;;5032826;28;20025;-66
2022/09/06 11:18:14;;;;;;;1.00;0.90;;;27.40;50.90;;;;;;5032958;28;20566;-65
2022/09/06 11:20:43;;;;;;;1.23;0.80;;;27.40;50.90;;;;;;5032494;28;20060;-65
2022/09/06 11:23:26;;;;;;;1.20;0.80;;;27.40;50.90;;;;;;5032677;28;20358;-66
2022/09/06 11:26:19;;;;;;;0.90;0.80;;;27.50;51.00;;;;;;5031006;28;20361;-66
2022/09/06 11:28:53;;;;;;;1.50;0.90;;;27.50;50.90;;;;;;5032562;28;20078;-67
2022/09/06 11:31:25;;;;;;;2.28;1.00;;;27.50;51.00;;;;;;5031943;28;20492;-66
2022/09/06 11:34:22;;;;;;;1.55;1.10;;;27.50;51.00;;;;;;5031203;28;20025;-66
2022/09/06 11:36:50;;;;;;;0.77;0.70;;;27.50;51.20;;;;;;4995424;28;20048;-66
2022/09/06 11:39:32;;;;;;;1.08;0.88;;;27.50;51.70;;;;;;5032269;28;20025;-67
2022/09/06 11:41:59;;;;;;;1.38;0.80;;;27.50;51.30;;;;;;5032272;28;20241;-66
2022/09/06 11:44:49;;;;;;;1.38;0.90;;;27.60;51.40;;;;;;5032115;28;20654;-67
2022/09/06 11:47:35;;;;;;;1.58;0.90;;;27.60;51.20;;;;;;5032105;28;20128;-65
2022/09/06 11:50:17;;;;;;;1.00;0.90;;;27.60;51.00;;;;;;5032187;28;20087;-66
2022/09/06 11:52:58;;;;;;;0.82;0.80;;;27.60;50.90;;;;;;5032139;28;20500;-65
2022/09/06 11:55:58;;;;;;;1.33;0.90;;;27.60;50.80;;;;;;5032178;28;20056;-67
2022/09/06 11:58:43;;;;;;;2.05;0.82;;;27.60;50.70;;;;;;5032420;28;20104;-67
2022/09/06 12:01:11;;;;;;;0.80;0.73;;;27.70;50.70;;;;;;5031382;28;20048;-67
2022/09/06 12:03:52;;;;;;;0.85;0.70;;;27.70;50.80;;;;;;5031645;28;20091;-66
2022/09/06 12:06:34;;;;;;;1.15;0.90;;;27.70;50.90;;;;;;5032005;28;20021;-66
2022/09/06 12:09:00;;;;;;;0.80;0.80;;;27.70;50.70;;;;;;5032016;28;20505;-67
2022/09/06 12:11:45;;;;;;;1.58;0.80;;;27.70;50.90;;;;;;5031916;28;20045;-67
2022/09/06 12:14:45;;;;;;;1.08;0.80;;;27.70;50.80;;;;;;5018986;28;20058;-66
2022/09/06 12:17:14;;;;;;;1.38;0.80;;;27.80;50.90;;;;;;5011567;28;20448;-67
2022/09/06 12:19:58;;;;;;;0.70;0.70;;;27.80;50.80;;;;;;5012267;28;20050;-66
2022/09/06 12:22:26;;;;;;;0.70;0.70;;;27.80;51.00;;;;;;5011954;28;20465;-67
2022/09/06 12:25:14;;;;;;;1.08;0.90;;;27.80;50.90;;;;;;5011980;28;20033;-67
2022/09/06 12:28:03;;;;;;;0.93;0.80;;;27.80;50.80;;;;;;4985559;28;20841;-66
2022/09/06 12:30:46;;;;;;;0.90;0.80;;;27.80;50.80;;;;;;5009994;28;20477;-65
2022/09/06 12:33:35;;;;;;;0.80;0.80;;;27.80;51.10;;;;;;5011077;28;20079;-67
2022/09/06 12:36:12;;;;;;;0.70;0.70;;;27.80;51.30;;;;;;5010561;28;20137;-67
2022/09/06 12:38:38;;;;;;;1.00;0.80;;;27.90;51.20;;;;;;5011642;28;20308;-66
2022/09/06 12:41:04;;;;;;;1.10;0.82;;;27.90;51.40;;;;;;5011646;28;20029;-66
2022/09/06 12:43:34;;;;;;;1.20;0.90;;;27.90;51.20;;;;;;5011963;28;20021;-67
2022/09/06 12:46:05;;;;;;;1.00;0.82;;;27.90;51.10;;;;;;5011273;28;20079;-67
2022/09/06 12:48:34;;;;;;;0.80;0.70;;;27.90;51.10;;;;;;5011348;28;20037;-67
2022/09/06 12:51:05;;;;;;;0.73;0.70;;;27.90;51.00;;;;;;5011367;28;20022;-67
2022/09/06 12:53:33;;;;;;;1.23;0.73;;;28.00;51.30;;;;;;5011165;28;20044;-68
2022/09/06 12:56:12;;;;;;;1.20;0.85;;;28.00;51.40;;;;;;5011075;28;20629;-67
2022/09/06 12:58:39;;;;;;;0.95;0.80;;;28.00;51.30;;;;;;5011230;28;20500;-67
2022/09/06 13:01:21;;;;;;;1.20;0.82;;;28.00;51.40;;;;;;5010679;28;20409;-67
2022/09/06 13:04:02;;;;;;;1.17;0.90;;;28.00;51.50;;;;;;5011391;28;20080;-66
2022/09/06 13:06:32;;;;;;;0.95;0.80;;;28.10;51.40;;;;;;5010566;28;20029;-65
2022/09/06 13:08:58;;;;;;;1.00;0.80;;;28.10;51.30;;;;;;5010220;28;20422;-66